Time;durP1;ratioP1;P1;durP2;ratioP2;P2;SDS_P1;SDS_P2;PMS_P1;PMS_P2;Temp;Humidity;BMP_temperature;BMP_pressure;BME280_temperature;BME280_humidity;BME280_pressure;Samples;Min_cycle;Max_cycle;Signal;HPM_P1;HPM_P2
2021/10/31 00:02:10;;;;;;;13.37;7.13;;;;;;;10.39;100.00;100624.47;5116411;28;20571;-35
2021/10/31 00:04:35;;;;;;;12.20;7.40;;;;;;;10.40;100.00;100636.97;5115810;28;20121;-35
2021/10/31 00:07:00;;;;;;;10.17;7.20;;;;;;;10.40;100.00;100629.66;5116553;28;20081;-35
2021/10/31 00:09:26;;;;;;;11.13;7.15;;;;;;;10.26;100.00;100617.44;5097555;28;20036;-35
2021/10/31 00:11:51;;;;;;;15.17;7.60;;;;;;;10.31;100.00;100633.78;5116107;28;20049;-35
2021/10/31 00:14:17;;;;;;;9.57;6.87;;;;;;;10.35;100.00;100636.84;5115581;28;20015;-35
2021/10/31 00:16:42;;;;;;;9.47;6.83;;;;;;;10.34;100.00;100632.47;5116172;28;20264;-35
2021/10/31 00:19:07;;;;;;;18.00;7.90;;;;;;;10.29;100.00;100642.09;5115857;28;20024;-35
2021/10/31 00:21:33;;;;;;;10.80;6.90;;;;;;;10.28;100.00;100639.63;5116348;28;20094;-35
2021/10/31 00:23:59;;;;;;;11.55;6.85;;;;;;;10.22;100.00;100635.13;5115482;28;20105;-35
2021/10/31 00:26:24;;;;;;;12.55;6.93;;;;;;;10.19;100.00;100635.59;5116306;28;20044;-35
2021/10/31 00:28:50;;;;;;;13.32;6.70;;;;;;;10.11;100.00;100622.44;5115832;28;20023;-35
2021/10/31 00:31:15;;;;;;;14.60;6.78;;;;;;;10.06;100.00;100621.25;5115905;28;20030;-35
2021/10/31 00:33:41;;;;;;;14.17;7.43;;;;;;;10.12;100.00;100627.59;5115559;28;20019;-35
2021/10/31 00:36:06;;;;;;;12.63;6.70;;;;;;;10.15;100.00;100637.97;5115773;28;20031;-35
2021/10/31 00:38:32;;;;;;;10.47;6.80;;;;;;;10.07;100.00;100630.19;5116221;28;20026;-35
2021/10/31 00:40:57;;;;;;;14.68;7.53;;;;;;;10.03;100.00;100626.31;5115138;28;20023;-35
2021/10/31 00:43:23;;;;;;;11.63;7.07;;;;;;;10.04;100.00;100644.97;5115484;28;20447;-35
2021/10/31 00:45:49;;;;;;;15.27;6.93;;;;;;;10.01;100.00;100650.03;5115371;28;20027;-35
2021/10/31 00:48:15;;;;;;;17.98;9.07;;;;;;;9.81;100.00;100626.03;5114984;28;20028;-35
2021/10/31 00:50:41;;;;;;;10.77;7.03;;;;;;;9.95;100.00;100645.53;5115181;28;20023;-35
2021/10/31 00:53:07;;;;;;;13.18;7.53;;;;;;;9.82;100.00;100643.06;5115119;28;20470;-35
2021/10/31 00:55:32;;;;;;;14.07;6.75;;;;;;;9.94;100.00;100660.91;5115173;28;20027;-35
2021/10/31 00:57:59;;;;;;;10.83;7.47;;;;;;;9.87;100.00;100648.59;5114923;28;20062;-35
2021/10/31 01:00:25;;;;;;;14.13;7.47;;;;;;;9.85;100.00;100662.31;5114989;28;20492;-35
2021/10/31 01:02:50;;;;;;;10.35;7.10;;;;;;;9.80;100.00;100638.69;5115291;28;20027;-35
2021/10/31 01:05:20;;;;;;;13.25;7.15;;;;;;;9.84;100.00;100649.84;5115188;28;20024;-35
2021/10/31 01:08:15;;;;;;;12.27;6.93;;;;;;;9.86;100.00;100657.72;5115716;28;20110;-35
2021/10/31 01:10:54;;;;;;;11.45;6.90;;;;;;;9.77;100.00;100641.88;5114680;28;20107;-35
2021/10/31 01:13:28;;;;;;;9.48;6.22;;;;;;;9.87;100.00;100667.50;5115666;28;20032;-35
2021/10/31 01:16:29;;;;;;;10.32;6.07;;;;;;;9.73;100.00;100645.25;5113797;28;20020;-35
2021/10/31 01:19:22;;;;;;;12.63;6.25;;;;;;;9.78;100.00;100665.13;5114963;28;20027;-35
2021/10/31 01:22:02;;;;;;;15.48;6.68;;;;;;;9.76;100.00;100661.84;5114612;28;20076;-35
2021/10/31 01:24:44;;;;;;;10.90;6.63;;;;;;;9.75;100.00;100667.44;5115100;28;20108;-35
2021/10/31 01:27:46;;;;;;;8.73;6.20;;;;;;;9.73;100.00;100672.25;5115000;28;20034;-35
2021/10/31 01:30:20;;;;;;;11.82;5.68;;;;;;;9.67;100.00;100662.38;5114692;28;20015;-35
2021/10/31 01:33:03;;;;;;;13.93;6.95;;;;;;;9.61;100.00;100660.56;5114683;28;20023;-35
2021/10/31 01:35:49;;;;;;;12.73;7.07;;;;;;;9.66;100.00;100674.22;5114362;28;20084;-35
2021/10/31 01:38:53;;;;;;;9.55;6.22;;;;;;;9.65;100.00;100670.69;5114278;28;20110;-35
2021/10/31 01:41:33;;;;;;;13.35;6.28;;;;;;;9.65;100.00;100672.56;5115070;28;20031;-35
2021/10/31 01:44:07;;;;;;;10.10;6.10;;;;;;;9.57;100.00;100659.41;5114595;28;20357;-35
2021/10/31 01:46:37;;;;;;;9.70;6.35;;;;;;;9.53;100.00;100665.25;5114764;28;20168;-35
2021/10/31 01:49:21;;;;;;;14.63;7.15;;;;;;;9.59;100.00;100673.50;5114618;28;20024;-35
2021/10/31 01:51:57;;;;;;;11.73;6.60;;;;;;;9.55;100.00;100682.03;5114900;28;20024;-35
2021/10/31 01:54:30;;;;;;;10.33;6.67;;;;;;;9.49;100.00;100679.44;5114367;28;20031;-35
2021/10/31 01:57:00;;;;;;;9.20;5.72;;;;;;;9.55;100.00;100682.03;5114310;28;20467;-36
2021/10/31 01:59:33;;;;;;;10.60;6.93;;;;;;;9.45;100.00;100662.88;5114202;28;20027;-36
2021/10/31 02:02:02;;;;;;;10.48;6.72;;;;;;;9.50;100.00;100670.28;5114373;28;20024;-35
2021/10/31 02:04:32;;;;;;;12.68;6.70;;;;;;;9.48;100.00;100681.31;5113918;28;20391;-35
2021/10/31 02:06:59;;;;;;;13.80;6.03;;;;;;;9.27;100.00;100644.00;5113753;28;20028;-35
2021/10/31 02:09:29;;;;;;;11.60;7.13;;;;;;;9.44;100.00;100680.13;5114116;28;20042;-35
2021/10/31 02:11:56;;;;;;;9.98;6.75;;;;;;;9.45;100.00;100680.94;5114483;28;20463;-35
2021/10/31 02:14:24;;;;;;;12.38;7.25;;;;;;;9.40;100.00;100676.22;5113469;28;20029;-35
2021/10/31 02:16:49;;;;;;;10.60;6.75;;;;;;;9.37;100.00;100681.25;5113706;28;20028;-35
2021/10/31 02:19:38;;;;;;;12.95;7.20;;;;;;;9.43;100.00;100674.97;5113781;28;20028;-35
2021/10/31 02:22:05;;;;;;;9.57;7.10;;;;;;;9.33;100.00;100667.41;5114083;28;20028;-35
2021/10/31 02:24:30;;;;;;;11.85;6.78;;;;;;;9.30;100.00;100657.03;5113530;28;20056;-35
2021/10/31 02:26:57;;;;;;;11.82;7.68;;;;;;;9.39;100.00;100673.75;5116318;28;20439;-36
2021/10/31 02:29:22;;;;;;;;;;;;;;;9.44;100.00;100677.41;5118354;28;20035;-36
2021/10/31 02:31:47;;;;;;;12.63;7.20;;;;;;;9.30;100.00;100654.34;5118752;28;19957;-36
2021/10/31 02:34:13;;;;;;;12.80;7.17;;;;;;;9.30;100.00;100675.94;5117578;28;20023;-36
2021/10/31 02:36:38;;;;;;;13.68;8.10;;;;;;;9.25;100.00;100670.41;5117557;28;20055;-36
2021/10/31 02:39:07;;;;;;;13.13;8.45;;;;;;;9.29;100.00;100671.59;5117690;28;20024;-36
2021/10/31 02:41:34;;;;;;;12.50;8.00;;;;;;;9.31;100.00;100677.56;5117465;28;20471;-36
2021/10/31 02:44:00;;;;;;;14.85;8.90;;;;;;;9.32;100.00;100673.00;5117857;28;20020;-36
2021/10/31 02:46:32;;;;;;;11.55;7.93;;;;;;;9.33;100.00;100670.09;5117398;28;20031;-36
2021/10/31 02:48:58;;;;;;;12.63;9.20;;;;;;;9.32;100.00;100676.56;5117476;28;20062;-36
2021/10/31 02:51:36;;;;;;;11.75;8.65;;;;;;;9.36;100.00;100669.63;5117447;28;20028;-36
2021/10/31 02:54:42;;;;;;;16.08;8.82;;;;;;;9.35;100.00;100667.97;5117281;28;20027;-36
2021/10/31 02:57:14;;;;;;;15.18;9.45;;;;;;;9.34;100.00;100660.94;5034561;28;20048;-36
2021/10/31 02:59:48;;;;;;;12.82;9.00;;;;;;;9.31;100.00;100655.16;5034616;28;20100;-36
2021/10/31 03:02:14;;;;;;;13.40;9.23;;;;;;;9.41;100.00;100669.75;5034920;28;20338;-36
2021/10/31 03:04:40;;;;;;;15.43;9.85;;;;;;;9.36;100.00;100671.50;5034477;28;20425;-36
2021/10/31 03:07:05;;;;;;;14.20;9.57;;;;;;;9.28;100.00;100648.38;5034497;28;20038;-36
2021/10/31 03:09:31;;;;;;;14.75;9.88;;;;;;;9.36;100.00;100668.81;5034133;28;20104;-36
2021/10/31 03:12:05;;;;;;;16.85;9.40;;;;;;;9.35;100.00;100659.06;5034514;28;20037;-36
2021/10/31 03:14:30;;;;;;;15.25;10.38;;;;;;;9.32;100.00;100657.66;5034442;28;20087;-36
2021/10/31 03:16:56;;;;;;;15.20;9.43;;;;;;;9.31;100.00;100650.59;5034177;28;20029;-36
2021/10/31 03:19:21;;;;;;;13.52;9.45;;;;;;;9.12;100.00;100616.59;5034067;28;20068;-36
2021/10/31 03:21:47;;;;;;;16.52;9.63;;;;;;;9.32;100.00;100656.81;5034048;28;20034;-36
2021/10/31 03:24:12;;;;;;;15.63;11.25;;;;;;;9.28;100.00;100641.09;5033941;28;20160;-36
2021/10/31 03:26:38;;;;;;;14.80;9.40;;;;;;;9.24;100.00;100633.69;5034488;28;20069;-36
2021/10/31 03:29:03;;;;;;;13.93;10.57;;;;;;;9.24;100.00;100625.59;5033849;28;20272;-36
2021/10/31 03:31:29;;;;;;;19.37;10.83;;;;;;;9.31;100.00;100649.78;5038802;28;20029;-36
2021/10/31 03:33:54;;;;;;;15.90;11.00;;;;;;;9.31;100.00;100644.38;5116794;28;20041;-36
2021/10/31 03:36:19;;;;;;;14.80;10.90;;;;;;;9.29;100.00;100660.81;5117108;28;20024;-36
2021/10/31 03:38:45;;;;;;;16.53;12.53;;;;;;;9.27;100.00;100657.50;5115630;28;20172;-36
2021/10/31 03:41:10;;;;;;;21.47;11.73;;;;;;;9.25;100.00;100648.81;5117446;28;20359;-36
2021/10/31 03:43:36;;;;;;;18.60;11.27;;;;;;;9.27;100.00;100650.25;5117018;28;20027;-36
2021/10/31 03:46:01;;;;;;;17.98;11.73;;;;;;;9.27;100.00;100652.09;5117343;28;20020;-36
2021/10/31 03:48:27;;;;;;;17.92;11.10;;;;;;;9.25;100.00;100644.22;5117015;28;20035;-36
2021/10/31 03:50:52;;;;;;;15.13;11.20;;;;;;;9.14;100.00;100622.59;5116376;28;20088;-36
2021/10/31 03:53:17;;;;;;;16.67;11.67;;;;;;;9.20;100.00;100635.19;5116510;28;20072;-36
2021/10/31 03:55:43;;;;;;;15.80;11.43;;;;;;;9.27;100.00;100644.84;5116343;28;20020;-36
2021/10/31 03:58:08;;;;;;;16.23;11.83;;;;;;;9.16;100.00;100631.28;5116648;28;20080;-36
2021/10/31 04:00:34;;;;;;;19.27;12.83;;;;;;;9.24;100.00;100628.28;5115960;28;20091;-36
2021/10/31 04:02:59;;;;;;;13.70;11.05;;;;;;;9.27;100.00;100635.91;5116493;28;20147;-36
2021/10/31 04:05:25;;;;;;;16.33;11.50;;;;;;;9.21;100.00;100623.34;5116682;28;20508;-36
2021/10/31 04:07:50;;;;;;;23.00;13.13;;;;;;;9.28;100.00;100635.69;5116205;28;20103;-36
2021/10/31 04:10:16;;;;;;;17.35;12.88;;;;;;;9.20;100.00;100629.78;5116735;28;20030;-36
2021/10/31 04:12:41;;;;;;;17.40;11.83;;;;;;;9.22;100.00;100625.81;5116601;28;20052;-36
2021/10/31 04:15:07;;;;;;;17.25;12.40;;;;;;;9.22;100.00;100622.28;5116191;28;20515;-36
2021/10/31 04:17:33;;;;;;;16.33;12.45;;;;;;;9.26;100.00;100629.69;5116496;28;20466;-36
2021/10/31 04:19:59;;;;;;;16.23;11.73;;;;;;;9.25;100.00;100621.81;5115813;28;20114;-36
2021/10/31 04:22:26;;;;;;;19.63;12.00;;;;;;;9.29;100.00;100631.13;5116622;28;20110;-36
2021/10/31 04:24:52;;;;;;;20.75;12.77;;;;;;;9.27;100.00;100634.06;5115563;28;20094;-36
2021/10/31 04:27:17;;;;;;;18.83;12.73;;;;;;;9.23;100.00;100637.44;5116697;28;20035;-36
2021/10/31 04:29:42;;;;;;;19.37;12.57;;;;;;;9.21;100.00;100636.81;5115708;28;20023;-36
2021/10/31 04:32:08;;;;;;;15.90;11.03;;;;;;;9.25;100.00;100635.31;5116100;28;20054;-36
2021/10/31 04:34:33;;;;;;;13.35;10.32;;;;;;;9.05;100.00;100613.16;5115916;28;20458;-36
2021/10/31 04:37:00;;;;;;;15.30;10.93;;;;;;;9.11;100.00;100618.47;5115647;28;20019;-36
2021/10/31 04:39:26;;;;;;;14.77;11.30;;;;;;;9.01;100.00;100605.53;5115564;28;20474;-36
2021/10/31 04:41:52;;;;;;;14.30;10.95;;;;;;;9.02;100.00;100609.84;5116012;28;20027;-36
2021/10/31 04:44:17;;;;;;;14.38;10.25;;;;;;;9.13;100.00;100620.97;5115373;28;20020;-36
2021/10/31 04:46:43;;;;;;;15.70;11.57;;;;;;;9.10;100.00;100610.63;5115200;28;20111;-36
2021/10/31 04:49:08;;;;;;;14.87;10.30;;;;;;;9.08;100.00;100605.47;5115119;28;20455;-36
2021/10/31 04:51:34;;;;;;;17.73;11.67;;;;;;;9.11;100.00;100609.56;5115598;28;20269;-36
2021/10/31 04:53:59;;;;;;;15.33;12.40;;;;;;;9.12;100.00;100616.59;5116091;28;20077;-36
2021/10/31 04:56:25;;;;;;;13.27;11.50;;;;;;;9.10;100.00;100607.91;5115262;28;20035;-36
2021/10/31 04:58:51;;;;;;;11.83;10.13;;;;;;;9.06;100.00;100612.13;5114882;28;20370;-36
2021/10/31 05:01:17;;;;;;;13.35;11.57;;;;;;;9.06;100.00;100610.25;5114868;28;20474;-36
2021/10/31 05:03:43;;;;;;;13.77;10.45;;;;;;;9.03;100.00;100610.72;5115035;28;20024;-36
2021/10/31 05:06:09;;;;;;;12.77;10.02;;;;;;;9.00;100.00;100600.34;5115836;28;20398;-36
2021/10/31 05:08:34;;;;;;;13.53;10.53;;;;;;;8.91;100.00;100586.34;5115289;28;20030;-36
2021/10/31 05:10:59;;;;;;;14.00;12.10;;;;;;;8.92;100.00;100581.78;5115113;28;20352;-36
2021/10/31 05:13:25;;;;;;;15.07;11.83;;;;;;;8.99;100.00;100594.16;5115462;28;20098;-36
2021/10/31 05:15:50;;;;;;;18.97;11.63;;;;;;;9.00;100.00;100597.66;5114799;28;20023;-36
2021/10/31 05:18:15;;;;;;;12.87;11.03;;;;;;;9.01;100.00;100588.50;5115129;28;20065;-36
2021/10/31 05:20:41;;;;;;;15.77;11.10;;;;;;;8.95;100.00;100584.84;5114528;28;20020;-36
2021/10/31 05:23:06;;;;;;;13.70;11.57;;;;;;;8.90;100.00;100583.91;5115179;28;20018;-36
2021/10/31 05:25:31;;;;;;;14.20;11.87;;;;;;;8.88;100.00;100585.97;5114945;28;20137;-36
2021/10/31 05:27:56;;;;;;;13.97;11.10;;;;;;;8.91;100.00;100597.13;5114914;28;20062;-35
2021/10/31 05:30:22;;;;;;;12.67;10.43;;;;;;;8.82;100.00;100582.31;5114723;28;20047;-36
2021/10/31 05:32:49;;;;;;;16.17;11.47;;;;;;;8.89;100.00;100583.06;5114855;28;20020;-36
2021/10/31 05:35:14;;;;;;;14.80;11.45;;;;;;;8.88;100.00;100575.19;5114104;28;20429;-36
2021/10/31 05:37:47;;;;;;;14.70;10.85;;;;;;;8.89;100.00;100584.94;5114664;28;20024;-36
2021/10/31 05:40:16;;;;;;;14.75;12.20;;;;;;;8.86;100.00;100580.81;5114561;28;20038;-36
2021/10/31 05:42:42;;;;;;;16.02;11.30;;;;;;;8.92;100.00;100571.81;5114793;28;20027;-36
2021/10/31 05:45:08;;;;;;;;;;;;;;;8.98;100.00;100568.22;5114700;28;20031;-36
2021/10/31 05:47:38;;;;;;;14.23;10.25;;;;;;;8.96;100.00;100564.91;5114251;28;19903;-36
2021/10/31 05:50:06;;;;;;;13.45;10.57;;;;;;;8.95;100.00;100568.69;5114578;28;20328;-36
2021/10/31 05:52:32;;;;;;;14.30;11.52;;;;;;;8.98;100.00;100567.41;5114146;28;20019;-36
2021/10/31 05:54:59;;;;;;;15.30;11.73;;;;;;;8.96;100.00;100566.78;5114596;28;20106;-36
2021/10/31 05:57:25;;;;;;;11.68;10.18;;;;;;;8.98;100.00;100554.75;5114326;28;20020;-36
2021/10/31 05:59:50;;;;;;;13.25;10.30;;;;;;;9.03;100.00;100556.78;5114033;28;20020;-36
2021/10/31 06:02:16;;;;;;;12.87;11.10;;;;;;;9.02;100.00;100555.09;5113716;28;20020;-36
2021/10/31 06:04:44;;;;;;;17.13;10.90;;;;;;;9.06;100.00;100545.50;5114651;28;20474;-36
2021/10/31 06:07:10;;;;;;;15.32;11.85;;;;;;;9.08;100.00;100542.56;5114171;28;20103;-36
2021/10/31 06:09:35;;;;;;;11.40;10.20;;;;;;;9.06;100.00;100542.81;5113729;28;20473;-36
2021/10/31 06:12:00;;;;;;;13.20;10.20;;;;;;;9.10;100.00;100548.56;5114123;28;20333;-36
2021/10/31 06:14:26;;;;;;;12.97;10.73;;;;;;;8.96;100.00;100523.66;5114237;28;20051;-36
2021/10/31 06:16:51;;;;;;;17.00;11.30;;;;;;;9.03;100.00;100530.63;5114280;28;20043;-36
2021/10/31 06:19:17;;;;;;;15.63;11.20;;;;;;;9.09;100.00;100534.28;5113481;28;20090;-36
2021/10/31 06:21:42;;;;;;;15.10;11.80;;;;;;;8.94;100.00;100515.78;5114030;28;20020;-36
2021/10/31 06:24:07;;;;;;;13.63;11.40;;;;;;;9.10;100.00;100527.81;5113760;28;20371;-36
2021/10/31 06:26:33;;;;;;;13.07;11.27;;;;;;;9.09;100.00;100512.69;5113401;28;20039;-36
2021/10/31 06:28:58;;;;;;;14.23;12.10;;;;;;;9.09;100.00;100517.25;5113437;28;20079;-36
2021/10/31 06:31:23;;;;;;;13.60;11.53;;;;;;;9.03;100.00;100509.03;5113924;28;20052;-36
2021/10/31 06:33:48;;;;;;;12.97;11.40;;;;;;;8.95;100.00;100495.88;5113441;28;20432;-36
2021/10/31 06:36:14;;;;;;;14.70;11.53;;;;;;;9.02;100.00;100518.16;5114187;28;20011;-36
2021/10/31 06:38:39;;;;;;;14.53;10.90;;;;;;;9.05;100.00;100522.28;5113554;28;20475;-36
2021/10/31 06:41:07;;;;;;;19.23;12.77;;;;;;;9.03;100.00;100500.94;5113550;28;20114;-36
2021/10/31 06:43:34;;;;;;;13.95;11.50;;;;;;;9.01;100.00;100497.63;5113165;28;20027;-36
2021/10/31 06:46:00;;;;;;;12.48;11.15;;;;;;;9.05;100.00;100495.31;5113743;28;20387;-36
2021/10/31 06:48:25;;;;;;;14.57;11.75;;;;;;;8.99;100.00;100493.53;5113686;28;20027;-36
2021/10/31 06:50:53;;;;;;;12.97;10.93;;;;;;;8.94;100.00;100480.75;5113963;28;20080;-36
2021/10/31 06:53:19;;;;;;;12.07;10.45;;;;;;;8.84;100.00;100466.97;5114270;28;20051;-36
2021/10/31 06:55:44;;;;;;;16.65;11.75;;;;;;;8.96;100.00;100481.31;5113063;28;20557;-36
2021/10/31 06:58:10;;;;;;;15.32;11.55;;;;;;;9.02;100.00;100493.88;5113398;28;20032;-36
2021/10/31 07:00:35;;;;;;;13.20;10.40;;;;;;;9.07;100.00;100492.38;5113023;28;20100;-36
2021/10/31 07:03:00;;;;;;;11.90;9.77;;;;;;;9.07;100.00;100486.97;5113975;28;20110;-36
2021/10/31 07:05:26;;;;;;;13.20;10.90;;;;;;;9.07;100.00;100479.72;5113769;28;20056;-36
2021/10/31 07:07:51;;;;;;;14.43;10.90;;;;;;;9.05;100.00;100476.44;5113598;28;20043;-36
2021/10/31 07:10:16;;;;;;;19.07;11.87;;;;;;;9.02;100.00;100460.69;5112938;28;20058;-36
2021/10/31 07:12:42;;;;;;;13.10;11.57;;;;;;;9.08;100.00;100478.69;5115800;28;20296;-36
2021/10/31 07:15:08;;;;;;;12.80;11.45;;;;;;;9.12;100.00;100484.41;5117088;28;20106;-36
2021/10/31 07:17:33;;;;;;;17.05;12.00;;;;;;;9.15;100.00;100482.09;5116783;28;20459;-36
2021/10/31 07:19:59;;;;;;;14.83;11.73;;;;;;;9.17;100.00;100479.16;5117049;28;20088;-36
2021/10/31 07:22:24;;;;;;;13.77;10.40;;;;;;;9.22;100.00;100474.72;5116959;28;20064;-36
2021/10/31 07:24:51;;;;;;;15.43;10.77;;;;;;;9.24;100.00;100463.69;5116369;28;20027;-37
2021/10/31 07:27:16;;;;;;;12.48;11.13;;;;;;;9.25;100.00;100455.38;5116676;28;20028;-36
2021/10/31 07:29:42;;;;;;;12.43;11.13;;;;;;;9.32;100.00;100463.38;5116471;28;20565;-36
2021/10/31 07:32:08;;;;;;;12.93;10.60;;;;;;;9.35;100.00;100460.19;5116920;28;20027;-36
2021/10/31 07:34:33;;;;;;;;;;;;;;;9.42;100.00;100460.94;5116928;28;20015;-36
2021/10/31 07:36:59;;;;;;;13.18;10.00;;;;;;;9.40;100.00;100459.50;5117052;28;19921;-36
2021/10/31 07:39:24;;;;;;;16.43;9.93;;;;;;;9.33;100.00;100443.44;5116718;28;20412;-36
2021/10/31 07:41:50;;;;;;;11.63;9.60;;;;;;;9.45;100.00;100463.13;5116628;28;20536;-36
2021/10/31 07:44:16;;;;;;;11.27;9.75;;;;;;;9.42;100.00;100446.59;5116269;28;20015;-36
2021/10/31 07:46:41;;;;;;;;;;;;;;;9.58;100.00;100466.69;5117234;28;20473;-36
2021/10/31 07:49:07;;;;;;;11.60;9.15;;;;;;;9.49;100.00;100447.31;5116908;28;19904;-36
2021/10/31 07:51:32;;;;;;;13.03;9.70;;;;;;;9.61;100.00;100466.19;5116078;28;20023;-36
2021/10/31 07:53:58;;;;;;;14.83;9.17;;;;;;;9.62;100.00;100455.19;5116094;28;20270;-36
2021/10/31 07:56:26;;;;;;;10.47;8.60;;;;;;;9.66;100.00;100469.03;5098315;28;20016;-36
2021/10/31 07:58:55;;;;;;;11.20;8.75;;;;;;;9.67;100.00;100468.81;5116568;28;20030;-36
2021/10/31 08:01:22;;;;;;;9.93;8.90;;;;;;;9.69;100.00;100465.88;5116684;28;20451;-35
2021/10/31 08:03:48;;;;;;;15.43;9.27;;;;;;;9.54;100.00;100429.34;5116408;28;20027;-35
2021/10/31 08:06:14;;;;;;;12.85;8.68;;;;;;;9.73;100.00;100453.53;5116383;28;20015;-35
2021/10/31 08:08:39;;;;;;;10.37;9.23;;;;;;;9.76;100.00;100458.47;5116369;28;20371;-37
2021/10/31 08:11:04;;;;;;;10.03;8.43;;;;;;;9.78;100.00;100467.97;5115911;28;20027;-35
2021/10/31 08:13:30;;;;;;;13.47;9.67;;;;;;;9.80;100.00;100465.03;5115987;28;20511;-35
2021/10/31 08:15:56;;;;;;;;;;;;;;;9.87;100.00;100481.97;5116318;28;20034;-35
2021/10/31 08:18:22;;;;;;;8.25;7.40;;;;;;;9.85;100.00;100473.25;5116637;28;19904;-35
2021/10/31 08:20:48;;;;;;;11.95;8.75;;;;;;;9.79;100.00;100456.13;5116525;28;20096;-35
2021/10/31 08:23:16;;;;;;;11.30;8.10;;;;;;;9.86;100.00;100436.25;5115971;28;20024;-36
2021/10/31 08:25:43;;;;;;;9.70;7.57;;;;;;;9.94;100.00;100452.94;5115251;28;20038;-36
2021/10/31 08:28:10;;;;;;;8.25;7.45;;;;;;;9.99;100.00;100444.94;5115843;28;20443;-36
2021/10/31 08:30:36;;;;;;;8.73;7.82;;;;;;;9.99;100.00;100436.84;5115459;28;20024;-36
2021/10/31 08:33:24;;;;;;;9.20;6.63;;;;;;;9.96;100.00;100407.63;5115271;28;20027;-36
2021/10/31 08:35:50;;;;;;;7.53;6.78;;;;;;;10.09;100.00;100409.22;5115588;28;20053;-36
2021/10/31 08:38:17;;;;;;;11.93;7.68;;;;;;;10.14;100.00;100401.22;5116231;28;20039;-36
2021/10/31 08:40:43;;;;;;;7.82;7.03;;;;;;;10.21;100.00;100393.81;5115409;28;20479;-36
2021/10/31 08:43:10;;;;;;;7.40;5.95;;;;;;;10.24;100.00;100385.25;5116026;28;20026;-36
2021/10/31 08:45:38;;;;;;;8.55;6.40;;;;;;;10.09;100.00;100362.47;5115316;28;20062;-36
2021/10/31 08:48:04;;;;;;;6.50;5.55;;;;;;;10.29;100.00;100395.34;5115906;28;20355;-36
2021/10/31 08:50:29;;;;;;;7.20;6.40;;;;;;;10.33;100.00;100385.69;5096938;28;20038;-36
2021/10/31 08:52:54;;;;;;;7.20;5.37;;;;;;;10.38;100.00;100385.78;5115201;28;20471;-36
2021/10/31 08:55:20;;;;;;;5.83;5.13;;;;;;;10.43;100.00;100372.38;5114939;28;20027;-36
2021/10/31 08:57:45;;;;;;;10.02;5.40;;;;;;;10.33;100.00;100350.56;5115712;28;20026;-36
2021/10/31 09:00:12;;;;;;;6.03;4.90;;;;;;;10.54;100.00;100374.22;5114714;28;20076;-36
2021/10/31 09:02:37;;;;;;;5.82;4.82;;;;;;;10.60;99.66;100374.31;5115489;28;20061;-36
2021/10/31 09:05:07;;;;;;;6.60;5.15;;;;;;;10.61;99.02;100362.44;5115050;28;20046;-36
2021/10/31 09:07:32;;;;;;;6.25;5.07;;;;;;;10.79;99.62;100379.28;5114811;28;20421;-36
2021/10/31 09:09:58;;;;;;;5.87;5.27;;;;;;;10.90;98.50;100366.75;5114847;28;20110;-36
2021/10/31 09:12:24;;;;;;;;;;;;;;;11.01;98.98;100355.00;5115224;28;20088;-36
2021/10/31 09:14:49;;;;;;;8.25;5.05;;;;;;;11.06;98.06;100351.56;5115221;28;20006;-36
2021/10/31 09:17:15;;;;;;;4.90;3.83;;;;;;;11.08;97.03;100342.16;5115324;28;20051;-36
2021/10/31 09:19:40;;;;;;;6.07;4.60;;;;;;;11.05;96.67;100323.69;5114606;28;20353;-36
2021/10/31 09:22:06;;;;;;;7.15;4.60;;;;;;;11.20;97.62;100327.72;5115236;28;20118;-36
2021/10/31 09:24:32;;;;;;;5.88;4.30;;;;;;;11.20;96.48;100331.22;5114328;28;20011;-36
2021/10/31 09:26:58;;;;;;;6.13;3.80;;;;;;;11.11;96.05;100289.41;5114913;28;20474;-37
2021/10/31 09:29:24;;;;;;;9.48;4.50;;;;;;;11.29;95.57;100323.53;5114075;28;20509;-36
2021/10/31 09:31:49;;;;;;;4.15;3.70;;;;;;;11.36;95.72;100318.75;5114502;28;20106;-36
2021/10/31 09:34:14;;;;;;;6.13;3.83;;;;;;;11.42;94.29;100325.03;5114418;28;20020;-36
2021/10/31 09:36:40;;;;;;;5.40;3.90;;;;;;;11.47;94.04;100312.44;5114065;28;20024;-36
2021/10/31 09:39:08;;;;;;;6.78;3.75;;;;;;;11.47;94.61;100301.59;5114296;28;20733;-36
2021/10/31 09:41:34;;;;;;;5.00;3.80;;;;;;;11.56;94.42;100301.97;5114053;28;20023;-36
2021/10/31 09:44:13;;;;;;;5.28;3.13;;;;;;;11.67;92.76;100316.47;5113900;28;20036;-36
2021/10/31 09:46:39;;;;;;;4.15;3.22;;;;;;;11.64;93.20;100292.59;5114726;28;20349;-36
2021/10/31 09:49:05;;;;;;;;;;;;;;;11.92;94.63;100313.28;5114391;28;20119;-36
2021/10/31 09:51:31;;;;;;;5.45;3.05;;;;;;;12.01;91.73;100307.19;5114141;28;19915;-36
2021/10/31 09:53:59;;;;;;;4.75;2.85;;;;;;;12.07;91.01;100286.38;5114642;28;20019;-36
2021/10/31 09:56:24;;;;;;;3.63;2.35;;;;;;;12.27;90.70;100299.31;5114162;28;20083;-36
2021/10/31 09:58:52;;;;;;;5.95;2.92;;;;;;;12.36;89.57;100292.38;5113754;28;20023;-36
2021/10/31 10:01:49;;;;;;;4.25;2.70;;;;;;;12.42;89.56;100264.22;5114019;28;20030;-36
2021/10/31 10:04:25;;;;;;;4.15;2.35;;;;;;;12.42;88.66;100272.34;5114571;28;20046;-36
2021/10/31 10:06:52;;;;;;;4.40;2.72;;;;;;;12.48;89.28;100260.47;5114232;28;20360;-36
2021/10/31 10:09:18;;;;;;;6.30;2.45;;;;;;;12.52;87.39;100268.91;5113947;28;20051;-36
2021/10/31 10:11:44;;;;;;;4.47;2.67;;;;;;;12.41;89.67;100230.06;5113780;28;20019;-37
2021/10/31 10:14:10;;;;;;;4.18;2.75;;;;;;;12.65;88.46;100251.41;5114462;28;20027;-36
2021/10/31 10:16:35;;;;;;;9.27;3.23;;;;;;;12.74;87.87;100244.44;5114218;28;20099;-36
2021/10/31 10:19:14;;;;;;;3.83;2.80;;;;;;;12.71;88.72;100236.81;5113515;28;20020;-36
2021/10/31 10:21:39;;;;;;;3.78;2.70;;;;;;;12.89;87.48;100249.97;5114332;28;20027;-36
2021/10/31 10:24:10;;;;;;;3.47;2.40;;;;;;;12.86;86.83;100215.19;5113724;28;20521;-36
2021/10/31 10:26:43;;;;;;;5.55;3.17;;;;;;;13.03;86.20;100229.44;5114681;28;20352;-36
2021/10/31 10:29:08;;;;;;;4.20;2.35;;;;;;;13.17;85.55;100231.66;5129782;28;20015;-36
2021/10/31 10:31:34;;;;;;;3.50;2.80;;;;;;;13.17;85.06;100202.63;5114131;28;20496;-37
2021/10/31 10:34:00;;;;;;;3.20;2.10;;;;;;;13.26;84.77;100224.69;5113862;28;20028;-36
2021/10/31 10:36:26;;;;;;;3.85;2.03;;;;;;;13.24;86.05;100211.38;5114286;28;20402;-36
2021/10/31 10:39:11;;;;;;;3.28;1.77;;;;;;;13.31;84.51;100208.44;5113439;28;20028;-36
2021/10/31 10:41:44;;;;;;;4.60;2.20;;;;;;;13.33;83.59;100201.66;5114129;28;20452;-36
2021/10/31 10:44:24;;;;;;;4.28;1.98;;;;;;;13.37;84.60;100196.50;5113433;28;20106;-36
2021/10/31 10:46:54;;;;;;;2.53;1.63;;;;;;;13.26;82.42;100183.97;5114322;28;20042;-36
2021/10/31 10:49:22;;;;;;;3.08;1.95;;;;;;;13.30;83.01;100182.38;5118188;28;20027;-36
2021/10/31 10:52:26;;;;;;;3.22;1.58;;;;;;;13.37;84.20;100177.50;5118064;28;20020;-36
2021/10/31 10:54:58;;;;;;;2.63;1.58;;;;;;;13.35;85.06;100175.06;5117693;28;20032;-36
2021/10/31 10:57:25;;;;;;;2.00;1.63;;;;;;;13.45;83.54;100163.41;5117581;28;20030;-37
2021/10/31 10:59:52;;;;;;;2.50;1.48;;;;;;;13.58;84.74;100156.66;5117488;28;20038;-36
2021/10/31 11:02:19;;;;;;;2.75;1.40;;;;;;;13.69;82.96;100144.72;5117881;28;20019;-36
2021/10/31 11:04:50;;;;;;;4.13;1.40;;;;;;;13.81;83.29;100139.03;5118180;28;20031;-36
2021/10/31 11:07:16;;;;;;;2.60;1.48;;;;;;;13.74;82.79;100143.94;5117179;28;20030;-36
2021/10/31 11:09:44;;;;;;;3.55;1.50;;;;;;;13.68;80.83;100131.44;5117299;28;20434;-36
2021/10/31 11:12:26;;;;;;;2.30;1.35;;;;;;;13.58;82.79;100124.06;5117646;28;20059;-36
2021/10/31 11:14:53;;;;;;;1.73;1.10;;;;;;;13.38;82.74;100098.50;5117893;28;20107;-37
2021/10/31 11:17:20;;;;;;;4.57;1.75;;;;;;;13.53;83.91;100114.00;5117556;28;20039;-36
2021/10/31 11:19:47;;;;;;;2.88;1.17;;;;;;;13.50;84.13;100108.28;5116864;28;20085;-36
2021/10/31 11:22:14;;;;;;;2.47;1.13;;;;;;;13.51;83.53;100099.84;5116949;28;20099;-36